Time;durP1;ratioP1;P1;durP2;ratioP2;P2;SDS_P1;SDS_P2;PMS_P1;PMS_P2;Temp;Humidity;BMP_temperature;BMP_pressure;BME280_temperature;BME280_humidity;BME280_pressure;Samples;Min_cycle;Max_cycle;Signal;HPM_P1;HPM_P2
2023/03/08 00:02:05;;;;;;;24.03;13.40;;;2.80;99.90;;;;;;5021203;28;20449;-85
2023/03/08 00:04:32;;;;;;;18.20;11.30;;;2.60;99.90;;;;;;5017505;28;20445;-85
2023/03/08 00:06:59;;;;;;;24.17;14.17;;;2.60;99.90;;;;;;5017610;28;20535;-85
2023/03/08 00:09:26;;;;;;;17.80;12.57;;;2.70;99.90;;;;;;5026053;28;20500;-84
2023/03/08 00:11:53;;;;;;;20.60;12.30;;;2.80;99.90;;;;;;5030825;28;20532;-84
2023/03/08 00:14:21;;;;;;;23.07;12.70;;;2.90;99.90;;;;;;5030914;28;20561;-83
2023/03/08 00:16:48;;;;;;;18.40;13.23;;;2.90;99.90;;;;;;5031378;28;20489;-83
2023/03/08 00:19:15;;;;;;;19.60;13.07;;;2.80;99.90;;;;;;5025182;28;20457;-83
2023/03/08 00:21:42;;;;;;;17.30;11.80;;;2.80;99.90;;;;;;5024846;28;20490;-83
2023/03/08 00:24:09;;;;;;;19.27;12.90;;;2.90;99.90;;;;;;5025519;28;20537;-84
2023/03/08 00:26:35;;;;;;;22.87;13.67;;;2.80;99.90;;;;;;5024052;28;20460;-83
2023/03/08 00:29:02;;;;;;;18.80;13.73;;;2.90;99.90;;;;;;5023420;28;20905;-83
2023/03/08 00:31:30;;;;;;;19.43;13.07;;;2.90;99.90;;;;;;5018006;28;20456;-83
2023/03/08 00:33:57;;;;;;;20.80;12.40;;;3.00;99.90;;;;;;5016367;28;20489;-83
2023/03/08 00:36:24;;;;;;;20.27;13.60;;;3.00;99.90;;;;;;5016954;28;20431;-82
2023/03/08 00:38:51;;;;;;;22.20;15.20;;;3.00;99.90;;;;;;5016013;28;20622;-83
2023/03/08 00:41:18;;;;;;;19.83;13.37;;;2.90;99.90;;;;;;5016215;28;20516;-84
2023/03/08 00:43:45;;;;;;;24.17;15.33;;;2.80;99.90;;;;;;5016154;28;20441;-81
2023/03/08 00:46:12;;;;;;;20.63;15.73;;;2.70;99.90;;;;;;5015879;28;20460;-84
2023/03/08 00:48:41;;;;;;;21.67;14.00;;;2.70;99.90;;;;;;5016257;28;20504;-83
2023/03/08 00:51:12;;;;;;;21.70;13.60;;;2.80;99.90;;;;;;5017161;28;20449;-81
2023/03/08 00:53:38;;;;;;;21.07;14.63;;;2.80;99.90;;;;;;5016189;28;20488;-83
2023/03/08 00:56:06;;;;;;;19.53;14.97;;;2.90;99.90;;;;;;5016338;28;20446;-84
2023/03/08 00:58:33;;;;;;;23.10;14.27;;;2.90;99.90;;;;;;5016275;28;20444;-82
2023/03/08 01:01:00;;;;;;;22.67;13.37;;;3.00;99.90;;;;;;5017422;28;20437;-83
2023/03/08 01:03:27;;;;;;;24.40;14.13;;;2.90;99.90;;;;;;5018140;28;20556;-83
2023/03/08 01:05:56;;;;;;;24.53;13.70;;;2.80;99.90;;;;;;5018787;28;20424;-83
2023/03/08 01:08:24;;;;;;;24.00;14.20;;;2.90;99.90;;;;;;5019157;28;20478;-83
2023/03/08 01:10:52;;;;;;;20.00;13.30;;;2.90;99.90;;;;;;5019272;28;20454;-84
2023/03/08 01:13:20;;;;;;;20.13;14.17;;;2.80;99.90;;;;;;5022161;28;20500;-83
2023/03/08 01:15:47;;;;;;;21.47;13.07;;;2.80;99.90;;;;;;5025422;28;20452;-83
2023/03/08 01:18:15;;;;;;;19.30;12.80;;;2.80;99.90;;;;;;5025960;28;20700;-84
2023/03/08 01:20:42;;;;;;;21.60;14.90;;;2.90;99.90;;;;;;5026759;28;20428;-83
2023/03/08 01:23:11;;;;;;;20.03;12.70;;;3.00;99.90;;;;;;5026517;28;20454;-84
2023/03/08 01:25:37;;;;;;;21.53;13.70;;;3.10;99.90;;;;;;5026553;28;20489;-84
2023/03/08 01:28:04;;;;;;;21.30;13.90;;;3.10;99.90;;;;;;5026715;28;21090;-84
2023/03/08 01:30:31;;;;;;;19.17;13.40;;;3.10;99.90;;;;;;5026690;28;20521;-84
2023/03/08 01:32:58;;;;;;;18.97;13.00;;;3.10;99.90;;;;;;5024134;28;20529;-83
2023/03/08 01:35:25;;;;;;;18.47;12.77;;;3.10;99.90;;;;;;5026438;28;20420;-83
2023/03/08 01:37:53;;;;;;;20.50;14.33;;;3.10;99.90;;;;;;5030378;28;20499;-82
2023/03/08 01:40:21;;;;;;;18.97;13.60;;;3.10;99.90;;;;;;5030252;28;20425;-84
2023/03/08 01:42:48;;;;;;;20.13;13.90;;;3.20;99.90;;;;;;5028689;28;20454;-83
2023/03/08 01:46:02;;;;;;;22.23;14.27;;;3.10;99.90;;;;;;5028330;28;20477;-85
2023/03/08 01:48:31;;;;;;;20.37;13.53;;;3.20;99.90;;;;;;5024399;28;20470;-82
2023/03/08 01:50:58;;;;;;;21.67;13.77;;;3.10;99.90;;;;;;5025802;28;20515;-82
2023/03/08 01:53:25;;;;;;;20.40;13.77;;;3.10;99.90;;;;;;5023760;28;21068;-83
2023/03/08 01:55:55;;;;;;;18.97;13.53;;;3.00;99.90;;;;;;5021202;28;20432;-84
2023/03/08 01:58:24;;;;;;;26.20;15.57;;;3.00;99.90;;;;;;5021095;28;20451;-82
2023/03/08 02:00:51;;;;;;;23.10;14.47;;;3.10;99.90;;;;;;5018058;28;20457;-85
2023/03/08 02:03:18;;;;;;;20.47;14.13;;;3.10;99.90;;;;;;5018665;28;20464;-84
2023/03/08 02:05:46;;;;;;;19.73;14.67;;;3.10;99.90;;;;;;5017130;28;20428;-83
2023/03/08 02:08:13;;;;;;;23.30;13.80;;;3.20;99.90;;;;;;5017739;28;20455;-83
2023/03/08 02:10:40;;;;;;;22.10;12.73;;;3.30;99.90;;;;;;5016723;28;20421;-83
2023/03/08 02:13:09;;;;;;;21.73;15.70;;;3.30;99.90;;;;;;5021529;28;20517;-85
2023/03/08 02:15:36;;;;;;;25.37;18.40;;;3.30;99.90;;;;;;5018298;28;20465;-84
2023/03/08 02:18:03;;;;;;;27.20;17.37;;;3.30;99.90;;;;;;5018500;28;20531;-84
2023/03/08 02:20:33;;;;;;;27.97;19.10;;;3.30;99.90;;;;;;5018496;28;20466;-83
2023/03/08 02:23:13;;;;;;;25.73;16.47;;;3.30;99.90;;;;;;5016791;28;20432;-83
2023/03/08 02:25:41;;;;;;;23.97;17.10;;;3.40;99.90;;;;;;4997979;28;20454;-83
2023/03/08 02:28:08;;;;;;;21.80;15.03;;;3.30;99.90;;;;;;4997787;28;20453;-84
2023/03/08 02:30:37;;;;;;;23.87;15.70;;;3.10;99.90;;;;;;5017341;28;20435;-84
2023/03/08 02:33:05;;;;;;;21.53;15.23;;;3.10;99.90;;;;;;5017062;28;20424;-84
2023/03/08 02:35:32;;;;;;;21.40;16.70;;;3.20;99.90;;;;;;5014840;28;20810;-82
2023/03/08 02:37:59;;;;;;;23.83;14.53;;;3.10;99.90;;;;;;4997210;28;20969;-83
2023/03/08 02:40:27;;;;;;;23.30;15.07;;;3.20;99.90;;;;;;4996024;28;20977;-83
2023/03/08 02:42:55;;;;;;;22.13;16.93;;;3.20;99.90;;;;;;5010873;28;20839;-84
2023/03/08 02:45:22;;;;;;;23.40;14.53;;;3.20;99.90;;;;;;5015545;28;20445;-83
2023/03/08 02:47:49;;;;;;;19.97;14.33;;;3.20;99.90;;;;;;5016594;28;20530;-84
2023/03/08 02:50:16;;;;;;;22.13;15.17;;;3.20;99.90;;;;;;5017339;28;20461;-83
2023/03/08 02:52:43;;;;;;;22.00;13.83;;;3.30;99.90;;;;;;5021117;28;20428;-83
2023/03/08 02:55:10;;;;;;;20.67;15.17;;;3.30;99.90;;;;;;5022562;28;20466;-83
2023/03/08 02:57:38;;;;;;;19.10;13.43;;;3.10;99.90;;;;;;5021721;28;20483;-83
2023/03/08 03:00:07;;;;;;;19.40;12.53;;;3.20;99.90;;;;;;5020042;28;20481;-81
2023/03/08 03:02:34;;;;;;;18.63;13.53;;;3.20;99.90;;;;;;5024763;28;20428;-83
2023/03/08 03:05:03;;;;;;;25.00;15.60;;;3.00;99.90;;;;;;5024974;28;20446;-83
2023/03/08 03:07:30;;;;;;;24.10;16.40;;;3.00;99.90;;;;;;5025564;28;20549;-84
2023/03/08 03:09:57;;;;;;;21.40;14.50;;;2.80;99.90;;;;;;5027741;28;20437;-83
2023/03/08 03:12:23;;;;;;;24.07;16.00;;;2.90;99.90;;;;;;5021938;28;20509;-83
2023/03/08 03:14:52;;;;;;;22.07;16.30;;;3.00;99.90;;;;;;5020018;28;20588;-84
2023/03/08 03:17:18;;;;;;;24.17;17.03;;;3.00;99.90;;;;;;5020168;28;20448;-83
2023/03/08 03:19:45;;;;;;;19.67;13.63;;;3.10;99.90;;;;;;5018286;28;20457;-83
2023/03/08 03:22:12;;;;;;;25.23;15.37;;;3.00;99.90;;;;;;5018159;28;20465;-83
2023/03/08 03:24:39;;;;;;;21.90;16.00;;;3.00;99.90;;;;;;5018148;28;20451;-84
2023/03/08 03:29:34;;;;;;;23.03;15.50;;;3.00;99.90;;;;;;4996016;28;20466;-80
2023/03/08 03:32:02;;;;;;;21.43;14.90;;;3.00;99.90;;;;;;5000550;28;20426;-80
2023/03/08 03:34:29;;;;;;;22.07;14.80;;;3.00;99.90;;;;;;5000331;28;20557;-80
2023/03/08 03:36:56;;;;;;;21.40;14.70;;;3.00;99.90;;;;;;4999993;28;21013;-80
2023/03/08 03:39:23;;;;;;;26.20;15.03;;;3.00;99.90;;;;;;4999841;28;20578;-80
2023/03/08 03:41:50;;;;;;;24.67;16.63;;;2.90;99.90;;;;;;4999768;28;20436;-80
2023/03/08 03:44:17;;;;;;;23.03;15.70;;;2.90;99.90;;;;;;4982401;28;20537;-80
2023/03/08 03:46:44;;;;;;;23.03;14.83;;;2.90;99.90;;;;;;4997464;28;20490;-80
2023/03/08 03:49:12;;;;;;;21.90;14.10;;;2.90;99.90;;;;;;4997587;28;20485;-80
2023/03/08 03:51:39;;;;;;;22.10;14.57;;;2.90;99.90;;;;;;4999904;28;20458;-80
2023/03/08 03:54:06;;;;;;;20.10;14.57;;;2.80;99.90;;;;;;5000136;28;20482;-80
2023/03/08 03:56:32;;;;;;;25.40;15.50;;;2.80;99.90;;;;;;4999539;28;20810;-80
2023/03/08 03:58:59;;;;;;;19.57;12.83;;;2.80;99.90;;;;;;5000329;28;20484;-80
2023/03/08 04:01:28;;;;;;;19.07;13.07;;;2.80;99.90;;;;;;4999698;28;20454;-80
2023/03/08 04:03:55;;;;;;;24.73;15.30;;;3.00;99.90;;;;;;4999905;28;20422;-81
2023/03/08 04:06:25;;;;;;;20.20;12.30;;;3.00;99.90;;;;;;5000405;28;20436;-81
2023/03/08 04:08:56;;;;;;;18.70;12.20;;;2.80;99.90;;;;;;5000490;28;20477;-81
2023/03/08 04:11:25;;;;;;;21.30;13.80;;;2.90;99.90;;;;;;4981533;28;20461;-81
2023/03/08 04:13:52;;;;;;;21.47;14.50;;;2.90;99.90;;;;;;4981273;28;20466;-81
2023/03/08 04:16:21;;;;;;;19.80;12.00;;;2.90;99.90;;;;;;4980907;28;21011;-81
2023/03/08 04:18:48;;;;;;;17.33;12.07;;;3.00;99.90;;;;;;4990940;28;20463;-79
2023/03/08 04:21:15;;;;;;;15.63;11.73;;;3.00;99.90;;;;;;4993085;28;20447;-80
2023/03/08 04:23:43;;;;;;;20.40;12.30;;;3.00;99.90;;;;;;4993273;28;20452;-80
2023/03/08 04:26:10;;;;;;;17.70;11.00;;;3.00;99.90;;;;;;4993242;28;20433;-79
2023/03/08 04:28:36;;;;;;;15.00;10.93;;;3.00;99.90;;;;;;4992502;28;21007;-80
2023/03/08 04:31:12;;;;;;;13.27;10.13;;;3.00;99.90;;;;;;4981113;28;20430;-81
2023/03/08 04:33:39;;;;;;;13.90;10.07;;;3.00;99.90;;;;;;4977913;28;20866;-80
2023/03/08 04:36:06;;;;;;;18.20;11.23;;;3.00;99.90;;;;;;4978375;28;20440;-81
2023/03/08 04:38:33;;;;;;;19.13;11.37;;;3.00;99.90;;;;;;4978378;28;20450;-79
2023/03/08 04:41:04;;;;;;;16.53;10.37;;;3.00;99.90;;;;;;4979230;28;20483;-81
2023/03/08 04:43:31;;;;;;;14.47;10.10;;;3.10;99.90;;;;;;4978490;28;20509;-81
2023/03/08 04:45:58;;;;;;;15.87;9.67;;;3.10;99.90;;;;;;4979008;28;20999;-80
2023/03/08 04:48:25;;;;;;;17.20;11.80;;;3.00;99.90;;;;;;4978175;28;20483;-79
2023/03/08 04:50:54;;;;;;;17.93;12.17;;;3.00;99.90;;;;;;4978575;28;20432;-81
2023/03/08 04:53:21;;;;;;;21.00;13.00;;;3.00;99.90;;;;;;4978036;28;20482;-80
2023/03/08 04:55:47;;;;;;;17.23;10.40;;;2.90;99.90;;;;;;4977528;28;20491;-80
2023/03/08 04:58:16;;;;;;;16.47;10.30;;;2.90;99.90;;;;;;4976113;28;20462;-81
2023/03/08 05:00:44;;;;;;;14.70;10.80;;;3.00;99.90;;;;;;4977395;28;20432;-80
2023/03/08 05:03:12;;;;;;;14.57;10.83;;;3.00;99.90;;;;;;4978671;28;20446;-81
2023/03/08 05:05:45;;;;;;;19.47;11.50;;;3.00;99.90;;;;;;4977334;28;20506;-81
2023/03/08 05:08:11;;;;;;;19.20;11.40;;;3.00;99.90;;;;;;4977901;28;20983;-81
2023/03/08 05:10:38;;;;;;;15.83;10.00;;;3.00;99.90;;;;;;4972471;28;20431;-81
2023/03/08 05:13:06;;;;;;;20.23;14.10;;;3.00;99.90;;;;;;4968366;28;20918;-80
2023/03/08 05:15:34;;;;;;;17.90;13.03;;;3.00;99.90;;;;;;4974613;28;20472;-80
2023/03/08 05:18:01;;;;;;;19.63;12.40;;;3.00;99.90;;;;;;4977108;28;20457;-81
2023/03/08 05:20:27;;;;;;;19.20;12.10;;;3.00;99.90;;;;;;4977017;28;20815;-81
2023/03/08 05:22:54;;;;;;;19.10;10.30;;;3.10;99.90;;;;;;4978103;28;20459;-80
2023/03/08 05:25:21;;;;;;;22.70;13.27;;;3.10;99.90;;;;;;4976857;28;20509;-81
2023/03/08 05:27:48;;;;;;;18.10;11.60;;;3.10;99.90;;;;;;4976708;28;20491;-81
2023/03/08 05:30:15;;;;;;;18.00;13.03;;;3.10;99.90;;;;;;4976671;28;20514;-81
2023/03/08 05:32:43;;;;;;;17.97;11.40;;;3.00;99.90;;;;;;4976934;28;20460;-81
2023/03/08 05:35:10;;;;;;;23.00;12.90;;;3.00;99.90;;;;;;4976638;28;20484;-81
2023/03/08 05:37:37;;;;;;;20.50;12.50;;;3.00;99.90;;;;;;4976945;28;20487;-81
2023/03/08 05:40:05;;;;;;;22.30;12.20;;;3.00;99.90;;;;;;4976677;28;20459;-81
2023/03/08 05:42:32;;;;;;;16.73;10.87;;;3.00;99.90;;;;;;4976859;28;20438;-80
2023/03/08 05:44:58;;;;;;;17.77;12.20;;;3.10;99.90;;;;;;4976826;28;20428;-81
2023/03/08 05:47:25;;;;;;;17.07;9.53;;;3.00;99.90;;;;;;4975536;28;20486;-81
2023/03/08 05:49:53;;;;;;;16.80;10.33;;;2.90;99.90;;;;;;4976173;28;20872;-81
2023/03/08 05:52:20;;;;;;;17.53;11.27;;;2.90;99.90;;;;;;4977166;28;20459;-79
2023/03/08 05:54:47;;;;;;;14.50;9.37;;;3.00;99.90;;;;;;4976876;28;20894;-79
2023/03/08 05:57:14;;;;;;;21.10;11.70;;;3.00;99.90;;;;;;4977377;28;20415;-81
2023/03/08 05:59:41;;;;;;;15.60;9.23;;;2.90;99.90;;;;;;4977668;28;20470;-81
2023/03/08 06:02:07;;;;;;;16.40;9.33;;;2.90;94.70;;;;;;4977117;28;20460;-80
2023/03/08 06:04:34;;;;;;;16.67;10.50;;;2.80;92.20;;;;;;4977584;28;20454;-81
2023/03/08 06:07:03;;;;;;;13.23;8.97;;;2.80;99.80;;;;;;4976910;28;20451;-80
2023/03/08 06:09:29;;;;;;;13.37;8.50;;;2.70;99.90;;;;;;4976340;28;20446;-81
2023/03/08 06:11:56;;;;;;;16.53;9.33;;;2.80;99.90;;;;;;4977167;28;20895;-80
2023/03/08 06:14:23;;;;;;;13.60;8.37;;;2.80;99.90;;;;;;4976557;28;20521;-81
2023/03/08 06:16:50;;;;;;;14.50;8.60;;;2.80;99.90;;;;;;4976136;28;21002;-80
2023/03/08 06:19:17;;;;;;;11.53;8.90;;;2.80;99.90;;;;;;4975722;28;20498;-80
2023/03/08 06:21:44;;;;;;;8.80;6.30;;;2.80;99.90;;;;;;4976819;28;20426;-80
2023/03/08 06:24:12;;;;;;;11.50;6.70;;;2.70;99.00;;;;;;4976227;28;20463;-80
2023/03/08 06:26:39;;;;;;;10.80;6.77;;;2.70;99.90;;;;;;4976603;28;20438;-79
2023/03/08 06:29:05;;;;;;;12.17;6.53;;;2.70;99.90;;;;;;4975721;28;20468;-80
2023/03/08 06:31:32;;;;;;;13.67;6.80;;;2.60;99.90;;;;;;4975578;28;20968;-79
2023/03/08 06:33:59;;;;;;;12.77;6.50;;;2.50;99.90;;;;;;4975819;28;20923;-80
2023/03/08 06:36:26;;;;;;;11.75;7.10;;;2.40;99.90;;;;;;4975074;28;20465;-81
2023/03/08 06:38:53;;;;;;;10.77;6.70;;;2.40;99.90;;;;;;4955501;28;20748;-81
2023/03/08 06:41:21;;;;;;;8.43;5.23;;;2.50;99.90;;;;;;4955632;28;20427;-81
2023/03/08 06:43:48;;;;;;;10.00;4.97;;;2.40;99.90;;;;;;4956053;28;20459;-80
2023/03/08 06:46:17;;;;;;;10.77;6.07;;;2.30;99.90;;;;;;4968626;28;20426;-81
2023/03/08 06:48:44;;;;;;;8.23;4.80;;;2.30;99.90;;;;;;4974968;28;20454;-81
2023/03/08 06:51:11;;;;;;;9.27;4.90;;;2.30;99.90;;;;;;4975818;28;20460;-85
2023/03/08 06:53:38;;;;;;;11.80;5.37;;;2.20;99.90;;;;;;4984177;28;20553;-82
2023/03/08 06:56:06;;;;;;;9.97;5.33;;;2.10;99.90;;;;;;4987014;28;20503;-82
2023/03/08 06:58:35;;;;;;;8.50;5.10;;;2.10;99.90;;;;;;4993781;28;20554;-81
2023/03/08 07:01:04;;;;;;;11.77;4.60;;;2.00;99.90;;;;;;4991641;28;20483;-83
2023/03/08 07:03:31;;;;;;;9.57;5.10;;;2.10;99.90;;;;;;4987996;28;20539;-85
2023/03/08 07:05:59;;;;;;;10.57;5.43;;;2.10;99.90;;;;;;4987551;28;21095;-84
2023/03/08 07:08:26;;;;;;;9.00;5.20;;;2.10;99.90;;;;;;4986053;28;20450;-84
2023/03/08 07:10:53;;;;;;;9.50;5.00;;;2.20;99.90;;;;;;4981928;28;20449;-83
2023/03/08 07:13:22;;;;;;;8.07;4.63;;;2.10;99.90;;;;;;4981348;28;20444;-85
2023/03/08 07:15:51;;;;;;;7.50;5.27;;;2.10;99.90;;;;;;4981064;28;20465;-84
2023/03/08 07:18:18;;;;;;;8.00;4.17;;;2.10;99.90;;;;;;4982733;28;20479;-82
2023/03/08 07:20:44;;;;;;;6.13;3.30;;;2.10;99.90;;;;;;4980246;28;20513;-85
2023/03/08 07:23:11;;;;;;;7.80;4.63;;;2.00;99.90;;;;;;4979278;28;20441;-83
2023/03/08 07:25:39;;;;;;;7.57;4.23;;;2.00;99.90;;;;;;4982817;28;20517;-85
2023/03/08 07:28:06;;;;;;;4.50;2.67;;;2.00;99.90;;;;;;4951589;28;1077083;-83
2023/03/08 07:30:33;;;;;;;4.50;2.93;;;1.90;99.90;;;;;;4993751;28;20224;-84
2023/03/08 07:33:01;;;;;;;5.78;2.97;;;1.90;99.90;;;;;;4989774;28;20470;-80
2023/03/08 07:35:28;;;;;;;6.10;3.87;;;1.80;99.90;;;;;;4955331;28;20231;-82
2023/03/08 07:37:55;;;;;;;9.07;3.90;;;1.80;99.90;;;;;;4993119;28;20546;-82
2023/03/08 07:40:22;;;;;;;4.67;3.03;;;1.80;99.90;;;;;;4995345;28;20423;-81
2023/03/08 07:42:49;;;;;;;6.23;3.67;;;1.90;99.90;;;;;;4995975;28;20523;-82
2023/03/08 07:45:17;;;;;;;4.67;3.33;;;1.80;99.90;;;;;;4994824;28;20523;-83
2023/03/08 07:47:43;;;;;;;5.77;3.40;;;1.90;99.90;;;;;;4995873;28;20487;-85
2023/03/08 07:50:13;;;;;;;6.33;3.17;;;1.80;99.90;;;;;;4996140;28;20486;-79
2023/03/08 07:52:39;;;;;;;5.72;3.20;;;1.70;99.90;;;;;;4986633;28;20459;-81
2023/03/08 07:55:07;;;;;;;3.20;2.10;;;1.70;99.90;;;;;;4983260;28;20602;-84
2023/03/08 07:57:34;;;;;;;4.30;2.05;;;1.70;99.90;;;;;;4986444;28;20554;-84
2023/03/08 08:00:01;;;;;;;4.53;2.47;;;1.60;99.90;;;;;;4992452;28;20297;-81
2023/03/08 08:02:28;;;;;;;4.82;2.28;;;1.60;99.90;;;;;;4992433;28;20276;-82
2023/03/08 08:04:55;;;;;;;5.20;1.60;;;1.60;99.90;;;;;;4990812;28;20230;-83
2023/03/08 08:07:23;;;;;;;2.75;1.40;;;1.50;99.90;;;;;;4986019;28;20509;-82
2023/03/08 08:09:50;;;;;;;3.45;1.63;;;1.50;99.90;;;;;;4984247;28;20691;-83
2023/03/08 08:12:16;;;;;;;3.92;1.95;;;1.50;99.90;;;;;;4982194;28;20235;-83
2023/03/08 08:14:43;;;;;;;4.00;1.60;;;1.50;99.90;;;;;;4980519;28;20767;-82
2023/03/08 08:17:10;;;;;;;3.67;2.27;;;1.40;99.90;;;;;;4979514;28;20707;-81
2023/03/08 08:19:37;;;;;;;4.80;2.07;;;1.40;99.90;;;;;;4979770;28;20796;-82
2023/03/08 08:22:05;;;;;;;3.75;2.10;;;1.50;99.90;;;;;;4980231;28;20476;-83
2023/03/08 08:24:34;;;;;;;5.00;2.10;;;1.50;99.90;;;;;;4979360;28;20200;-82
2023/03/08 08:27:01;;;;;;;3.23;1.83;;;1.50;99.90;;;;;;4980288;28;20302;-80
2023/03/08 08:29:28;;;;;;;4.70;2.23;;;1.50;99.90;;;;;;4985925;28;20545;-81
2023/03/08 08:31:55;;;;;;;6.32;1.77;;;1.50;99.90;;;;;;4989009;28;20527;-81
2023/03/08 08:34:22;;;;;;;6.60;2.27;;;1.50;99.90;;;;;;4989810;28;20680;-82
2023/03/08 08:36:49;;;;;;;5.50;2.13;;;1.40;99.90;;;;;;4978789;28;20482;-82
2023/03/08 08:39:16;;;;;;;3.73;2.53;;;1.40;99.90;;;;;;4977435;28;20231;-81
2023/03/08 08:41:44;;;;;;;4.82;2.78;;;1.50;99.90;;;;;;4977706;28;20529;-81
2023/03/08 08:44:11;;;;;;;5.13;2.70;;;1.50;99.90;;;;;;4978420;28;20265;-82
2023/03/08 08:46:38;;;;;;;6.38;1.83;;;1.40;99.90;;;;;;4978543;28;20196;-81
2023/03/08 08:49:05;;;;;;;3.00;2.17;;;1.50;99.90;;;;;;4974319;28;20231;-82
2023/03/08 08:51:32;;;;;;;3.33;2.00;;;1.50;99.90;;;;;;4978545;28;20470;-81
2023/03/08 08:53:59;;;;;;;3.80;2.50;;;1.60;99.90;;;;;;4977934;28;20434;-80
2023/03/08 08:56:27;;;;;;;5.50;2.90;;;1.50;99.90;;;;;;4977747;28;20234;-81
2023/03/08 08:58:56;;;;;;;3.05;2.10;;;1.50;99.90;;;;;;4976717;28;20676;-81
2023/03/08 09:01:24;;;;;;;5.63;2.27;;;1.60;99.90;;;;;;4975833;28;20291;-81
2023/03/08 09:03:52;;;;;;;4.25;2.30;;;1.60;99.90;;;;;;4977586;28;20456;-81
2023/03/08 09:06:20;;;;;;;5.60;2.00;;;1.60;99.90;;;;;;4977359;28;20218;-81
2023/03/08 09:08:49;;;;;;;3.23;2.10;;;1.60;99.90;;;;;;4977037;28;20474;-80
2023/03/08 09:11:16;;;;;;;4.97;2.27;;;1.70;99.90;;;;;;4978607;28;20981;-81
2023/03/08 09:13:43;;;;;;;5.70;2.33;;;1.70;99.90;;;;;;4977883;28;20469;-81
2023/03/08 09:16:18;;;;;;;4.45;2.30;;;1.60;99.90;;;;;;4978459;28;20249;-81
2023/03/08 09:18:45;;;;;;;3.13;2.73;;;1.60;99.90;;;;;;4977934;28;20228;-81
2023/03/08 09:21:13;;;;;;;3.65;2.20;;;1.50;99.90;;;;;;4978636;28;20997;-81
2023/03/08 09:23:39;;;;;;;6.22;2.00;;;1.50;99.90;;;;;;4978341;28;20290;-80
2023/03/08 09:31:18;;;;;;;3.90;2.27;;;1.30;99.90;;;;;;5799452;23;20518;-79
2023/03/08 09:33:48;;;;;;;3.80;1.40;;;1.30;99.90;;;;;;5009675;22;20569;-85
2023/03/08 09:36:16;;;;;;;2.00;1.27;;;1.40;99.90;;;;;;4993212;28;20242;-85
2023/03/08 09:38:43;;;;;;;2.70;1.30;;;1.50;99.90;;;;;;4992422;28;20462;-85
2023/03/08 09:41:24;;;;;;;2.13;1.40;;;1.60;99.90;;;;;;5001060;28;20647;-84
2023/03/08 09:44:11;;;;;;;2.28;1.58;;;1.70;99.90;;;;;;5004857;28;20457;-85
2023/03/08 09:46:46;;;;;;;5.03;2.00;;;1.70;99.90;;;;;;4995659;28;20210;-84
2023/03/08 09:49:16;;;;;;;6.20;1.90;;;1.70;99.90;;;;;;4999123;28;20449;-84
2023/03/08 09:51:47;;;;;;;3.10;2.13;;;1.80;99.90;;;;;;4997628;28;20441;-85
2023/03/08 09:54:17;;;;;;;2.53;1.75;;;1.80;99.90;;;;;;4998007;28;20445;-85
2023/03/08 09:56:48;;;;;;;3.30;2.20;;;1.90;99.90;;;;;;4996181;28;20706;-85
2023/03/08 09:59:21;;;;;;;2.53;1.83;;;2.00;99.90;;;;;;4997909;28;20524;-85
2023/03/08 10:01:58;;;;;;;3.83;1.80;;;2.10;99.90;;;;;;4995666;28;20433;-84
2023/03/08 10:04:35;;;;;;;2.40;1.70;;;2.20;99.90;;;;;;4992488;28;20523;-85
2023/03/08 10:07:25;;;;;;;2.40;1.80;;;2.30;99.90;;;;;;4993240;28;20900;-85
2023/03/08 10:10:06;;;;;;;2.43;1.90;;;2.60;99.90;;;;;;4994347;28;20482;-86
2023/03/08 10:12:43;;;;;;;4.83;2.30;;;2.60;99.90;;;;;;4997305;28;20472;-84
2023/03/08 10:15:15;;;;;;;4.30;1.97;;;2.70;99.90;;;;;;4991655;28;20557;-83
2023/03/08 10:17:49;;;;;;;4.90;2.03;;;2.60;99.90;;;;;;4997534;28;20445;-83
2023/03/08 10:20:20;;;;;;;4.60;2.20;;;2.70;99.90;;;;;;5001055;28;20476;-86
2023/03/08 10:22:53;;;;;;;3.13;2.13;;;2.70;99.90;;;;;;5007132;28;20457;-86
2023/03/08 10:25:23;;;;;;;4.53;2.30;;;2.80;99.90;;;;;;5001813;28;20506;-87
2023/03/08 10:27:54;;;;;;;3.47;2.80;;;2.80;99.90;;;;;;4995362;28;20461;-86
2023/03/08 10:30:24;;;;;;;7.10;2.50;;;2.80;99.90;;;;;;4995929;28;20905;-85
2023/03/08 10:33:00;;;;;;;2.70;2.07;;;2.60;99.90;;;;;;4994458;28;20478;-86
2023/03/08 10:35:33;;;;;;;3.50;2.47;;;2.60;99.90;;;;;;4995045;28;20445;-86
2023/03/08 10:37:59;;;;;;;2.90;2.40;;;2.60;99.90;;;;;;4997585;28;21266;-85
2023/03/08 10:40:26;;;;;;;3.33;2.40;;;2.70;99.90;;;;;;4997403;28;20469;-86
2023/03/08 10:42:59;;;;;;;2.40;2.10;;;2.60;99.90;;;;;;4998578;28;20473;-86
2023/03/08 10:45:28;;;;;;;3.00;2.40;;;2.60;99.90;;;;;;4999167;28;20420;-85
2023/03/08 10:47:59;;;;;;;2.77;2.47;;;2.80;99.90;;;;;;5000397;28;20446;-86
2023/03/08 10:50:28;;;;;;;2.43;2.00;;;2.80;99.90;;;;;;4997905;28;20420;-86
2023/03/08 10:52:55;;;;;;;4.07;2.37;;;2.70;99.90;;;;;;4998286;28;20553;-85
2023/03/08 10:55:23;;;;;;;3.33;2.80;;;2.80;99.90;;;;;;4996834;28;20486;-85
2023/03/08 10:57:53;;;;;;;4.43;3.00;;;2.90;99.90;;;;;;4999172;28;20539;-85
2023/03/08 11:00:33;;;;;;;3.50;2.40;;;3.20;99.90;;;;;;4997081;28;21119;-85
2023/03/08 11:03:12;;;;;;;4.10;2.17;;;3.70;99.90;;;;;;5002508;28;20510;-84
2023/03/08 11:05:42;;;;;;;2.23;2.00;;;3.70;35.10;;;;;;4997187;28;20943;-85
2023/03/08 11:08:19;;;;;;;3.60;2.37;;;3.80;9.70;;;;;;4997526;28;20450;-85
2023/03/08 11:10:46;;;;;;;3.43;1.60;;;3.90;9.40;;;;;;4996522;28;20849;-85
2023/03/08 11:13:27;;;;;;;2.23;1.97;;;4.00;1.00;;;;;;5000741;28;20512;-85
2023/03/08 11:16:02;;;;;;;2.27;1.77;;;4.00;1.00;;;;;;5001308;28;20450;-85
2023/03/08 11:18:43;;;;;;;3.00;2.60;;;3.90;1.00;;;;;;5001082;28;20515;-85
2023/03/08 11:21:17;;;;;;;3.73;2.00;;;3.70;1.00;;;;;;4999787;28;20441;-85
2023/03/08 11:23:52;;;;;;;2.90;1.80;;;3.60;1.00;;;;;;5002480;28;20448;-85
2023/03/08 11:26:27;;;;;;;2.40;1.80;;;3.60;1.00;;;;;;5002133;28;20503;-85
2023/03/08 11:29:11;;;;;;;4.43;2.13;;;3.50;11.40;;;;;;5012367;28;20422;-85
2023/03/08 11:31:49;;;;;;;2.53;2.20;;;3.40;32.00;;;;;;5008018;28;20401;-85
2023/03/08 11:34:36;;;;;;;3.03;2.20;;;3.20;27.80;;;;;;5001178;28;20517;-85
2023/03/08 11:37:09;;;;;;;3.23;2.57;;;3.20;40.60;;;;;;5004684;28;20542;-82
2023/03/08 11:39:42;;;;;;;6.80;3.73;;;3.20;52.10;;;;;;5005828;28;20425;-82
2023/03/08 11:42:20;;;;;;;3.30;2.40;;;3.30;75.60;;;;;;5009080;28;20441;-81
2023/03/08 11:45:04;;;;;;;3.93;2.20;;;3.40;27.00;;;;;;5008361;28;20420;-81
2023/03/08 11:47:55;;;;;;;6.60;2.90;;;3.50;29.70;;;;;;5009302;28;20526;-83
2023/03/08 11:50:26;;;;;;;3.00;2.47;;;3.70;20.00;;;;;;4988014;28;20558;-82
2023/03/08 11:53:14;;;;;;;3.73;2.87;;;3.50;1.00;;;;;;4977758;28;20460;-83
2023/03/08 11:56:11;;;;;;;4.70;3.27;;;3.50;17.90;;;;;;4997952;28;20429;-83
2023/03/08 11:58:43;;;;;;;3.53;2.87;;;3.40;6.00;;;;;;4998002;28;20433;-82
2023/03/08 12:01:18;;;;;;;3.50;2.70;;;3.20;50.30;;;;;;4999320;28;20488;-82
2023/03/08 12:03:48;;;;;;;3.10;2.20;;;3.20;48.20;;;;;;5001336;28;20497;-80
2023/03/08 12:06:22;;;;;;;4.03;3.20;;;3.20;48.00;;;;;;5001126;28;20450;-84
2023/03/08 12:08:54;;;;;;;4.00;3.60;;;3.10;71.20;;;;;;5003182;28;20436;-83
2023/03/08 12:11:27;;;;;;;4.90;2.97;;;3.20;62.90;;;;;;5000631;28;20405;-81
2023/03/08 12:14:01;;;;;;;4.27;3.37;;;3.40;74.30;;;;;;5009585;28;20459;-84
2023/03/08 12:16:35;;;;;;;3.60;3.30;;;3.40;33.80;;;;;;5005231;28;20480;-84
2023/03/08 12:19:11;;;;;;;7.27;4.00;;;3.20;47.90;;;;;;5005503;28;20509;-84
2023/03/08 12:21:45;;;;;;;3.70;3.30;;;3.20;70.80;;;;;;5003553;28;20460;-84
2023/03/08 12:24:31;;;;;;;3.60;3.17;;;3.30;75.20;;;;;;5002885;28;20470;-84
2023/03/08 12:27:04;;;;;;;4.30;3.40;;;3.30;70.70;;;;;;5003852;28;20424;-84
2023/03/08 12:29:38;;;;;;;4.77;3.77;;;3.20;60.80;;;;;;5001441;28;20483;-84
2023/03/08 12:32:05;;;;;;;3.20;2.90;;;3.20;47.10;;;;;;4999790;28;20416;-84
2023/03/08 12:34:38;;;;;;;4.10;3.70;;;3.30;90.80;;;;;;4997201;28;20553;-85
2023/03/08 12:37:20;;;;;;;5.20;3.87;;;3.20;92.10;;;;;;4999228;28;20576;-85
2023/03/08 12:39:56;;;;;;;4.77;4.27;;;3.50;90.20;;;;;;4998935;28;20568;-85
2023/03/08 12:42:32;;;;;;;5.17;3.60;;;3.50;49.30;;;;;;4998357;28;20444;-83
2023/03/08 12:45:25;;;;;;;4.70;4.20;;;3.50;52.60;;;;;;4999187;28;20493;-84
2023/03/08 12:47:57;;;;;;;7.50;4.70;;;3.50;45.10;;;;;;4999347;28;20435;-88
2023/03/08 12:50:24;;;;;;;3.80;3.40;;;3.60;41.90;;;;;;5000393;28;20483;-84
2023/03/08 12:52:54;;;;;;;4.60;4.20;;;3.50;55.20;;;;;;4998413;28;20500;-86
2023/03/08 12:55:30;;;;;;;5.80;5.00;;;3.40;57.70;;;;;;4998868;28;20466;-82
2023/03/08 12:57:59;;;;;;;6.13;5.27;;;3.30;39.40;;;;;;4998168;28;21045;-82
2023/03/08 13:00:29;;;;;;;4.87;4.37;;;3.40;93.10;;;;;;4997824;28;20520;-83
2023/03/08 13:03:01;;;;;;;5.00;4.10;;;3.30;92.30;;;;;;4996409;28;20488;-84
2023/03/08 13:05:31;;;;;;;5.20;4.70;;;3.40;99.90;;;;;;4998324;28;20815;-85
2023/03/08 13:08:21;;;;;;;5.40;3.90;;;3.60;95.40;;;;;;4998786;28;20477;-82